createdAt,value
2022-09-28T00:01:21.979Z,99588.66
2022-09-28T00:03:54.738Z,99588.59
2022-09-28T00:06:24.739Z,99588.31
2022-09-28T00:08:53.322Z,99586.88
2022-09-28T00:11:23.161Z,99586.38
2022-09-28T00:13:54.754Z,99585.69
2022-09-28T00:16:26.086Z,99585.31
2022-09-28T00:18:54.858Z,99581.00
2022-09-28T00:21:25.275Z,99584.09
2022-09-28T00:24:17.172Z,99591.03
2022-09-28T00:26:51.313Z,99588.50
2022-09-28T00:29:33.269Z,99592.47
2022-09-28T00:32:04.680Z,99590.53
2022-09-28T00:34:36.660Z,99587.22
2022-09-28T00:37:06.211Z,99584.25
2022-09-28T00:39:35.869Z,99589.03
2022-09-28T00:42:04.464Z,99590.53
2022-09-28T00:44:40.473Z,99584.81
2022-09-28T00:47:33.673Z,99587.09
2022-09-28T00:50:06.930Z,99586.56
2022-09-28T00:52:53.684Z,99590.34
2022-09-28T00:55:31.374Z,99585.91
2022-09-28T00:58:03.523Z,99592.50
2022-09-28T01:00:32.095Z,99583.25
2022-09-28T01:03:00.052Z,99589.16
2022-09-28T01:05:28.145Z,99580.91
2022-09-28T01:07:57.070Z,99578.44
2022-09-28T01:10:25.377Z,99572.00
2022-09-28T01:12:55.416Z,99578.63
2022-09-28T01:15:27.296Z,99565.47
2022-09-28T01:17:54.915Z,99558.72
2022-09-28T01:20:33.275Z,99556.09
2022-09-28T01:23:23.154Z,99556.69
2022-09-28T01:26:33.333Z,99550.84
2022-09-28T01:29:36.000Z,99553.25
2022-09-28T01:32:11.394Z,99562.16
2022-09-28T01:34:45.714Z,99566.31
2022-09-28T01:37:17.172Z,99570.41
2022-09-28T01:39:49.114Z,99572.34
2022-09-28T01:42:22.851Z,99570.03
2022-09-28T01:44:51.921Z,99580.59
2022-09-28T01:47:24.875Z,99580.31
2022-09-28T01:49:59.973Z,99579.72
2022-09-28T01:52:35.432Z,99582.22
2022-09-28T01:55:11.893Z,99584.03
2022-09-28T01:57:56.988Z,99582.22
2022-09-28T02:00:26.731Z,99583.25
2022-09-28T02:03:19.272Z,99580.41
2022-09-28T02:06:05.698Z,99575.97
2022-09-28T02:08:43.381Z,99568.50
2022-09-28T02:11:17.433Z,99564.44
2022-09-28T02:13:48.938Z,99575.84
2022-09-28T02:16:16.640Z,99578.69
2022-09-28T02:18:46.148Z,99574.13
2022-09-28T02:21:17.545Z,99581.84
2022-09-28T02:23:56.431Z,99570.09
2022-09-28T02:26:30.779Z,99572.34
2022-09-28T02:28:59.733Z,99566.25
2022-09-28T02:31:28.070Z,99564.31
2022-09-28T02:33:57.342Z,99564.44
2022-09-28T02:36:27.498Z,99567.84
2022-09-28T02:38:55.468Z,99571.69
2022-09-28T02:41:56.777Z,99572.22
2022-09-28T02:44:33.147Z,99567.31
2022-09-28T02:47:05.970Z,99570.34
2022-09-28T02:49:44.262Z,99568.41
2022-09-28T02:52:17.868Z,99562.13
2022-09-28T02:55:04.042Z,99554.69
2022-09-28T02:58:21.265Z,99558.22
2022-09-28T03:00:58.646Z,99563.03
2022-09-28T03:03:43.289Z,99578.69
2022-09-28T03:06:22.287Z,99579.75
2022-09-28T03:09:08.344Z,99579.44
2022-09-28T03:11:45.967Z,99577.22
2022-09-28T03:14:15.020Z,99576.53
2022-09-28T03:16:50.019Z,99572.66
2022-09-28T03:19:23.938Z,99561.53
2022-09-28T03:21:53.153Z,99558.66
2022-09-28T03:24:21.111Z,99562.66
2022-09-28T03:26:48.763Z,99561.22
2022-09-28T03:29:17.164Z,99566.41
2022-09-28T03:31:48.094Z,99566.13
2022-09-28T03:34:16.008Z,99555.22
2022-09-28T03:36:44.222Z,99560.84
2022-09-28T03:39:11.880Z,99553.31
2022-09-28T03:41:39.692Z,99552.41
2022-09-28T03:44:07.233Z,99543.88
2022-09-28T03:46:34.903Z,99550.50
2022-09-28T03:49:07.387Z,99557.31
2022-09-28T03:51:35.333Z,99552.72
2022-09-28T03:54:02.825Z,99559.66
2022-09-28T03:56:30.697Z,99558.28
2022-09-28T03:58:58.646Z,99563.25
2022-09-28T04:01:27.228Z,99564.91
2022-09-28T04:03:56.020Z,99564.38
2022-09-28T04:06:25.843Z,99555.41
2022-09-28T04:08:53.420Z,99553.75
2022-09-28T04:11:21.137Z,99559.03
2022-09-28T04:13:52.398Z,99561.81
2022-09-28T04:16:20.423Z,99558.13
2022-09-28T04:19:10.169Z,99552.50
2022-09-28T04:21:54.246Z,99547.44
2022-09-28T04:24:21.782Z,99544.19
2022-09-28T04:26:49.580Z,99548.47
2022-09-28T04:29:19.398Z,99538.97
2022-09-28T04:31:57.554Z,99541.56
2022-09-28T04:34:37.860Z,99540.72
2022-09-28T04:37:07.648Z,99539.59
2022-09-28T04:39:35.916Z,99537.09
2022-09-28T04:42:03.618Z,99542.69
2022-09-28T04:44:31.137Z,99534.03
2022-09-28T04:47:07.352Z,99532.38
2022-09-28T04:49:53.592Z,99538.22
2022-09-28T04:52:27.911Z,99530.72
2022-09-28T04:54:55.487Z,99541.50
2022-09-28T04:57:24.953Z,99540.72
2022-09-28T04:59:52.851Z,99538.41
2022-09-28T05:02:20.477Z,99549.66
2022-09-28T05:05:17.850Z,99541.50
2022-09-28T05:08:08.666Z,99536.13
2022-09-28T05:10:36.639Z,99536.41
2022-09-28T05:13:04.404Z,99538.84
2022-09-28T05:15:32.356Z,99538.75
2022-09-28T05:18:00.176Z,99545.75
2022-09-28T05:20:42.669Z,99553.31
2022-09-28T05:23:12.263Z,99546.88
2022-09-28T05:25:42.869Z,99542.66
2022-09-28T05:28:26.131Z,99549.09
2022-09-28T05:31:20.762Z,99549.94
2022-09-28T05:34:06.405Z,99543.78
2022-09-28T05:36:34.175Z,99551.41
2022-09-28T05:39:03.989Z,99545.00
2022-09-28T05:41:32.473Z,99547.13
2022-09-28T05:44:01.370Z,99545.72
2022-09-28T05:46:30.304Z,99545.72
2022-09-28T05:49:01.396Z,99540.78
2022-09-28T05:51:29.716Z,99543.44
2022-09-28T05:54:01.767Z,99548.13
2022-09-28T05:56:33.117Z,99541.56
2022-09-28T05:59:05.258Z,99535.00
2022-09-28T06:01:32.871Z,99537.50
2022-09-28T06:04:02.964Z,99531.72
2022-09-28T06:06:32.203Z,99541.66
2022-09-28T06:08:59.676Z,99543.63
2022-09-28T06:11:44.872Z,99540.84
2022-09-28T06:14:22.284Z,99546.94
2022-09-28T06:16:50.280Z,99539.34
2022-09-28T06:19:18.943Z,99543.03
2022-09-28T06:22:05.491Z,99538.06
2022-09-28T06:24:38.220Z,99535.06
2022-09-28T06:27:05.780Z,99532.91
2022-09-28T06:29:33.695Z,99538.06
2022-09-28T06:32:01.565Z,99537.72
2022-09-28T06:34:30.353Z,99534.56
2022-09-28T06:36:57.900Z,99531.78
2022-09-28T06:39:25.874Z,99534.25
2022-09-28T06:41:53.878Z,99532.28
2022-09-28T06:44:22.109Z,99530.47
2022-09-28T06:47:12.844Z,99529.94
2022-09-28T06:50:15.877Z,99529.94
2022-09-28T06:53:19.256Z,99526.66
2022-09-28T06:56:07.015Z,99523.81
2022-09-28T06:58:35.344Z,99529.44
2022-09-28T07:01:04.272Z,99526.31
2022-09-28T07:03:41.849Z,99520.31
2022-09-28T07:06:47.348Z,99515.72
2022-09-28T07:09:35.738Z,99513.38
2022-09-28T07:12:36.225Z,99508.81
2022-09-28T07:15:12.915Z,99504.84
2022-09-28T07:17:56.257Z,99506.38
2022-09-28T07:20:28.166Z,99507.53
2022-09-28T07:23:07.229Z,99511.13
2022-09-28T07:25:58.421Z,99509.78
2022-09-28T07:28:34.174Z,99515.75
2022-09-28T07:31:33.747Z,99513.72
2022-09-28T07:34:44.072Z,99506.53
2022-09-28T07:37:20.489Z,99508.78
2022-09-28T07:40:08.671Z,99512.25
2022-09-28T07:42:38.526Z,99512.81
2022-09-28T07:45:07.672Z,99519.84
2022-09-28T07:47:35.657Z,99516.47
2022-09-28T07:50:18.414Z,99519.84
2022-09-28T07:52:57.672Z,99516.69
2022-09-28T07:55:30.655Z,99519.00
2022-09-28T07:58:07.604Z,99528.22
2022-09-28T08:00:57.610Z,99531.63
2022-09-28T08:03:25.291Z,99534.78
2022-09-28T08:06:05.160Z,99535.91
2022-09-28T08:08:37.926Z,99537.75
2022-09-28T08:11:07.109Z,99533.97
2022-09-28T08:13:55.480Z,99537.69
2022-09-28T08:16:47.510Z,99537.31
2022-09-28T08:19:53.448Z,99531.47
2022-09-28T08:22:21.709Z,99537.44
2022-09-28T08:24:52.431Z,99530.69
2022-09-28T08:27:20.539Z,99529.16
2022-09-28T08:29:48.902Z,99525.44
2022-09-28T08:32:38.972Z,99533.22
2022-09-28T08:35:26.975Z,99523.59
2022-09-28T08:38:10.995Z,99527.84
2022-09-28T08:41:43.015Z,99526.50
2022-09-28T08:48:25.139Z,99532.59
2022-09-28T08:51:21.293Z,99529.22
2022-09-28T08:54:36.147Z,99531.56
2022-09-28T08:57:38.740Z,99535.06
2022-09-28T09:00:11.020Z,99535.88
2022-09-28T09:02:40.535Z,99535.13
2022-09-28T09:05:21.207Z,99533.53
2022-09-28T09:08:11.472Z,99534.50
2022-09-28T09:10:48.424Z,99538.63
2022-09-28T09:13:23.602Z,99531.91
2022-09-28T09:15:57.145Z,99528.28
2022-09-28T09:18:53.337Z,99533.88
2022-09-28T09:21:40.645Z,99523.88
2022-09-28T09:24:15.006Z,99515.44
2022-09-28T09:26:43.616Z,99521.16
2022-09-28T09:29:34.733Z,99501.72
2022-09-28T09:32:26.701Z,99510.50
2022-09-28T09:35:12.166Z,99506.13
2022-09-28T09:38:00.951Z,99503.44
2022-09-28T09:40:49.270Z,99503.69
2022-09-28T09:44:16.467Z,99500.84
2022-09-28T09:46:58.361Z,99500.75
2022-09-28T09:49:53.191Z,99502.63
2022-09-28T09:52:29.656Z,99499.94
2022-09-28T09:55:07.909Z,99503.53
2022-09-28T09:58:13.057Z,99499.44
2022-09-28T10:00:48.660Z,99497.75
2022-09-28T10:03:44.169Z,99491.00
2022-09-28T10:06:30.386Z,99485.72
2022-09-28T10:09:10.079Z,99475.44
2022-09-28T10:11:43.930Z,99478.88
2022-09-28T10:14:21.491Z,99479.50
2022-09-28T10:17:03.958Z,99483.50
2022-09-28T10:20:04.433Z,99483.97
2022-09-28T10:22:48.077Z,99482.09
2022-09-28T10:25:19.135Z,99478.91
2022-09-28T10:27:52.697Z,99485.53
2022-09-28T10:30:23.839Z,99487.72
2022-09-28T10:32:55.510Z,99482.94
2022-09-28T10:35:42.361Z,99487.03
2022-09-28T10:38:18.987Z,99478.34
2022-09-28T10:41:13.541Z,99483.88
2022-09-28T10:44:07.248Z,99478.16
2022-09-28T10:46:41.806Z,99479.16
2022-09-28T10:49:17.535Z,99464.16
2022-09-28T10:51:54.846Z,99476.06
2022-09-28T10:54:29.167Z,99475.94
2022-09-28T10:57:00.016Z,99473.91
2022-09-28T10:59:40.636Z,99464.91
2022-09-28T11:02:31.234Z,99467.66
2022-09-28T11:05:07.233Z,99461.59
2022-09-28T11:07:48.092Z,99466.19
2022-09-28T11:10:23.816Z,99467.81
2022-09-28T11:12:54.681Z,99454.25
2022-09-28T11:15:32.239Z,99452.66
2022-09-28T11:18:28.251Z,99454.88
2022-09-28T11:21:16.634Z,99446.91
2022-09-28T11:24:01.781Z,99445.28
2022-09-28T11:26:58.760Z,99438.03
2022-09-28T11:29:43.471Z,99442.41
2022-09-28T11:32:18.387Z,99441.16
2022-09-28T11:35:07.033Z,99431.41
2022-09-28T11:38:05.996Z,99427.03
2022-09-28T11:41:16.167Z,99423.38
2022-09-28T11:43:56.109Z,99427.53
2022-09-28T11:46:43.800Z,99418.13
2022-09-28T11:49:23.182Z,99426.06
2022-09-28T11:51:53.334Z,99418.97
2022-09-28T11:54:59.673Z,99409.25
2022-09-28T11:57:33.716Z,99407.34
2022-09-28T12:00:06.351Z,99402.38
2022-09-28T12:02:47.258Z,99406.81
2022-09-28T12:05:37.517Z,99400.19
2022-09-28T12:08:15.318Z,99391.28
2022-09-28T12:11:06.607Z,99383.28
2022-09-28T12:14:04.489Z,99377.41
2022-09-28T12:19:48.162Z,99379.59
2022-09-28T12:22:29.985Z,99376.22
2022-09-28T12:24:58.673Z,99386.19
2022-09-28T12:27:45.243Z,99377.16
2022-09-28T12:30:22.159Z,99376.84
2022-09-28T12:32:57.714Z,99383.59
2022-09-28T12:35:44.990Z,99378.75
2022-09-28T12:38:50.825Z,99376.06
2022-09-28T12:41:48.059Z,99380.97
2022-09-28T12:44:36.797Z,99374.16
2022-09-28T12:47:42.035Z,99362.75
2022-09-28T12:50:42.844Z,99367.13
2022-09-28T12:53:30.280Z,99371.22
2022-09-28T12:56:02.878Z,99370.53
2022-09-28T12:58:36.752Z,99375.34
2022-09-28T13:01:24.058Z,99374.03
2022-09-28T13:04:10.335Z,99363.72
2022-09-28T13:06:59.682Z,99361.34
2022-09-28T13:09:33.494Z,99367.63
2022-09-28T13:12:32.124Z,99372.19
2022-09-28T13:15:23.565Z,99358.38
2022-09-28T13:18:03.158Z,99364.53
2022-09-28T13:21:05.165Z,99367.13
2022-09-28T13:23:38.989Z,99353.16
2022-09-28T13:26:18.482Z,99351.41
2022-09-28T13:28:48.715Z,99357.31
2022-09-28T13:31:23.539Z,99363.00
2022-09-28T13:33:52.950Z,99352.97
2022-09-28T13:36:29.262Z,99351.31
2022-09-28T13:38:59.599Z,99346.28
2022-09-28T13:41:38.978Z,99350.06
2022-09-28T13:44:13.179Z,99337.22
2022-09-28T13:46:53.261Z,99336.97
2022-09-28T13:49:35.967Z,99324.63
2022-09-28T13:52:25.763Z,99319.69
2022-09-28T13:54:59.129Z,99322.66
2022-09-28T13:57:33.542Z,99321.47
2022-09-28T14:00:04.906Z,99315.59
2022-09-28T14:02:47.408Z,99316.66
2022-09-28T14:05:26.956Z,99321.66
2022-09-28T14:07:57.416Z,99315.53
2022-09-28T14:10:56.993Z,99321.31
2022-09-28T14:13:42.798Z,99313.50
2022-09-28T14:16:31.955Z,99311.31
2022-09-28T14:19:09.238Z,99305.72
2022-09-28T14:22:33.891Z,99311.69
2022-09-28T14:25:07.285Z,99311.69
2022-09-28T14:27:46.544Z,99307.97
2022-09-28T14:30:14.713Z,99312.78
2022-09-28T14:33:06.290Z,99304.44
2022-09-28T14:35:41.606Z,99317.72
2022-09-28T14:38:56.401Z,99313.91
2022-09-28T14:41:38.377Z,99313.13
2022-09-28T14:44:12.556Z,99310.19
2022-09-28T14:46:47.537Z,99326.66
2022-09-28T14:49:19.491Z,99308.06
2022-09-28T14:51:58.742Z,99309.94
2022-09-28T14:54:45.826Z,99306.84
2022-09-28T14:57:25.431Z,99309.25
2022-09-28T14:59:55.445Z,99302.28
2022-09-28T15:02:27.799Z,99298.88
2022-09-28T15:05:13.657Z,99305.31
2022-09-28T15:07:48.110Z,99315.91
2022-09-28T15:10:31.561Z,99313.72
2022-09-28T15:13:01.914Z,99314.69
2022-09-28T15:15:40.807Z,99315.38
2022-09-28T15:18:11.688Z,99318.38
2022-09-28T15:20:42.064Z,99312.72
2022-09-28T15:23:23.996Z,99317.00
2022-09-28T15:25:53.008Z,99307.56
2022-09-28T15:28:23.878Z,99306.47
2022-09-28T15:31:00.370Z,99297.44
2022-09-28T15:33:49.238Z,99289.06
2022-09-28T15:36:19.753Z,99291.88
2022-09-28T15:38:59.535Z,99288.06
2022-09-28T15:41:28.559Z,99291.16
2022-09-28T15:44:11.791Z,99288.00
2022-09-28T15:46:42.832Z,99289.66
2022-09-28T15:49:25.623Z,99292.31
2022-09-28T15:51:56.198Z,99299.50
2022-09-28T15:54:28.052Z,99296.47
2022-09-28T15:57:02.550Z,99293.25
2022-09-28T15:59:34.858Z,99299.31
2022-09-28T16:02:13.337Z,99309.66
2022-09-28T16:04:55.998Z,99301.03
2022-09-28T16:07:40.516Z,99297.97
2022-09-28T16:10:13.803Z,99306.38
2022-09-28T16:12:46.723Z,99309.66
2022-09-28T16:15:20.252Z,99306.78
2022-09-28T16:17:49.641Z,99309.81
2022-09-28T16:20:36.431Z,99297.53
2022-09-28T16:23:16.185Z,99297.28
2022-09-28T16:26:13.465Z,99288.81
2022-09-28T16:28:45.984Z,99290.22
2022-09-28T16:31:14.950Z,99297.38
2022-09-28T16:33:52.239Z,99294.72
2022-09-28T16:36:22.531Z,99290.88
2022-09-28T16:38:50.183Z,99306.94
2022-09-28T16:41:23.199Z,99308.22
2022-09-28T16:43:59.762Z,99306.94
2022-09-28T16:46:37.192Z,99301.25
2022-09-28T16:49:07.821Z,99296.63
2022-09-28T16:51:40.236Z,99299.97
2022-09-28T16:54:35.796Z,99300.88
2022-09-28T16:57:06.068Z,99294.91
2022-09-28T16:59:38.335Z,99289.44
2022-09-28T17:02:45.790Z,99291.47
2022-09-28T17:05:19.322Z,99276.00
2022-09-28T17:08:03.045Z,99272.69
2022-09-28T17:11:13.174Z,99274.31
2022-09-28T17:13:37.465Z,99276.66
2022-09-28T17:16:11.054Z,99280.22
2022-09-28T17:18:40.086Z,99282.25
2022-09-28T17:21:12.726Z,99280.00
2022-09-28T17:23:40.764Z,99279.63
2022-09-28T17:26:16.478Z,99272.16
2022-09-28T17:28:44.874Z,99278.47
2022-09-28T17:31:16.107Z,99280.63
2022-09-28T17:33:44.346Z,99285.69
2022-09-28T17:36:17.089Z,99286.50
2022-09-28T17:38:46.362Z,99286.47
2022-09-28T17:41:20.189Z,99269.75
2022-09-28T17:43:49.213Z,99277.56
2022-09-28T17:46:40.636Z,99276.28
2022-09-28T17:49:12.744Z,99275.47
2022-09-28T17:51:40.381Z,99275.84
2022-09-28T17:54:09.372Z,99285.00
2022-09-28T17:56:37.163Z,99288.19
2022-09-28T17:59:07.724Z,99288.25
2022-09-28T18:01:39.413Z,99292.03
2022-09-28T18:04:13.210Z,99292.16
2022-09-28T18:06:46.614Z,99288.84
2022-09-28T18:09:15.932Z,99299.22
2022-09-28T18:11:44.630Z,99289.91
2022-09-28T18:14:12.901Z,99290.22
2022-09-28T18:16:40.916Z,99286.72
2022-09-28T18:19:08.503Z,99286.91
2022-09-28T18:21:36.189Z,99289.88
2022-09-28T18:24:04.031Z,99292.19
2022-09-28T18:26:31.946Z,99280.13
2022-09-28T18:28:59.555Z,99286.03
2022-09-28T18:31:27.879Z,99287.88
2022-09-28T18:34:00.964Z,99287.88
2022-09-28T18:36:29.979Z,99288.75
2022-09-28T18:38:57.671Z,99297.41
2022-09-28T18:41:25.711Z,99289.56
2022-09-28T18:44:00.537Z,99293.38
2022-09-28T18:46:29.576Z,99293.63
2022-09-28T18:48:57.575Z,99285.63
2022-09-28T18:51:25.144Z,99289.38
2022-09-28T18:53:52.958Z,99282.53
2022-09-28T18:56:22.252Z,99278.28
2022-09-28T18:58:51.697Z,99280.13
2022-09-28T19:01:30.429Z,99273.59
2022-09-28T19:04:04.311Z,99271.53
2022-09-28T19:06:31.990Z,99268.88
2022-09-28T19:09:00.924Z,99277.47
2022-09-28T19:11:28.876Z,99275.88
2022-09-28T19:13:57.325Z,99271.53
2022-09-28T19:16:28.616Z,99279.00
2022-09-28T19:18:59.346Z,99273.81
2022-09-28T19:21:27.522Z,99272.34
2022-09-28T19:23:55.827Z,99278.56
2022-09-28T19:26:26.136Z,99275.59
2022-09-28T19:28:56.364Z,99280.78
2022-09-28T19:31:24.868Z,99270.78
2022-09-28T19:33:53.185Z,99277.75
2022-09-28T19:36:24.566Z,99270.53
2022-09-28T19:38:52.998Z,99275.50
2022-09-28T19:41:43.790Z,99285.41
2022-09-28T19:44:27.642Z,99288.13
2022-09-28T19:47:07.510Z,99284.47
2022-09-28T19:49:37.314Z,99287.38
2022-09-28T19:52:15.588Z,99277.06
2022-09-28T19:54:57.869Z,99274.13
2022-09-28T19:57:35.133Z,99273.41
2022-09-28T20:00:03.892Z,99278.81
2022-09-28T20:02:34.820Z,99282.06
2022-09-28T20:05:02.915Z,99276.59
2022-09-28T20:07:33.037Z,99269.56
2022-09-28T20:10:00.725Z,99271.56
2022-09-28T20:12:28.301Z,99263.00
2022-09-28T20:14:55.845Z,99264.81
2022-09-28T20:17:23.899Z,99265.38
2022-09-28T20:19:51.973Z,99262.72
2022-09-28T20:22:20.389Z,99260.03
2022-09-28T20:24:47.997Z,99267.56
2022-09-28T20:27:15.749Z,99256.94
2022-09-28T20:29:43.526Z,99255.66
2022-09-28T20:32:11.680Z,99247.44
2022-09-28T20:34:39.287Z,99242.63
2022-09-28T20:37:06.746Z,99252.00
2022-09-28T20:39:34.549Z,99241.78
2022-09-28T20:42:02.890Z,99240.91
2022-09-28T20:44:31.855Z,99234.03
2022-09-28T20:47:00.605Z,99235.50
2022-09-28T20:49:28.594Z,99222.59
2022-09-28T20:51:56.154Z,99230.69
2022-09-28T20:54:23.980Z,99235.59
2022-09-28T20:56:52.048Z,99241.06
2022-09-28T20:59:22.719Z,99246.00
2022-09-28T21:01:51.121Z,99252.25
2022-09-28T21:04:19.790Z,99243.75
2022-09-28T21:06:47.349Z,99247.88
2022-09-28T21:09:14.944Z,99249.16
2022-09-28T21:11:42.464Z,99250.50
2022-09-28T21:14:10.567Z,99247.75
2022-09-28T21:16:39.027Z,99248.69
2022-09-28T21:19:06.613Z,99254.16
2022-09-28T21:21:34.441Z,99245.88
2022-09-28T21:24:02.430Z,99254.00
2022-09-28T21:26:31.287Z,99247.47
2022-09-28T21:29:04.661Z,99250.16
2022-09-28T21:31:38.116Z,99247.63
2022-09-28T21:34:06.125Z,99242.72
2022-09-28T21:36:34.520Z,99232.75
2022-09-28T21:39:05.958Z,99235.69
2022-09-28T21:41:36.148Z,99230.81
2022-09-28T21:44:03.560Z,99235.13
2022-09-28T21:46:34.320Z,99232.19
2022-09-28T21:49:04.976Z,99232.91
2022-09-28T21:51:34.109Z,99225.41
2022-09-28T21:54:01.608Z,99236.25
2022-09-28T21:56:29.569Z,99246.59
2022-09-28T21:58:57.139Z,99239.41
2022-09-28T22:01:26.126Z,99233.34
2022-09-28T22:03:55.988Z,99223.28
2022-09-28T22:06:29.955Z,99228.13
2022-09-28T22:08:57.416Z,99226.09
2022-09-28T22:11:29.021Z,99239.16
2022-09-28T22:14:00.689Z,99236.94
2022-09-28T22:16:31.037Z,99230.47
2022-09-28T22:18:59.271Z,99235.84
2022-09-28T22:21:32.716Z,99235.66
2022-09-28T22:24:06.791Z,99248.44
2022-09-28T22:26:36.681Z,99252.53
2022-09-28T22:29:07.847Z,99254.72
2022-09-28T22:31:38.243Z,99268.28
2022-09-28T22:34:07.327Z,99262.16
2022-09-28T22:36:35.167Z,99256.72
2022-09-28T22:39:04.154Z,99250.97
2022-09-28T22:41:32.231Z,99240.59
2022-09-28T22:44:00.574Z,99247.53
2022-09-28T22:46:31.925Z,99233.31
2022-09-28T22:49:00.699Z,99243.84
2022-09-28T22:51:30.191Z,99234.84
2022-09-28T22:53:58.306Z,99233.19
2022-09-28T22:56:26.527Z,99229.56
2022-09-28T22:58:54.348Z,99226.03
2022-09-28T23:01:24.976Z,99229.78
2022-09-28T23:03:54.468Z,99229.28
2022-09-28T23:06:26.011Z,99236.66
2022-09-28T23:08:53.740Z,99237.03
2022-09-28T23:11:21.970Z,99234.31
2022-09-28T23:13:53.726Z,99232.34
2022-09-28T23:16:23.626Z,99229.94
2022-09-28T23:18:52.394Z,99237.25
2022-09-28T23:21:23.047Z,99230.59
2022-09-28T23:23:56.252Z,99234.75
2022-09-28T23:26:30.284Z,99251.47
2022-09-28T23:28:58.697Z,99256.13
2022-09-28T23:31:29.788Z,99247.81
2022-09-28T23:34:03.440Z,99241.25
2022-09-28T23:36:31.852Z,99240.06
2022-09-28T23:38:59.407Z,99235.75
2022-09-28T23:41:27.529Z,99232.03
2022-09-28T23:43:55.238Z,99222.63
2022-09-28T23:46:23.137Z,99225.47
2022-09-28T23:48:51.415Z,99233.44
2022-09-28T23:51:19.004Z,99234.22
2022-09-28T23:53:47.040Z,99234.88
2022-09-28T23:56:14.715Z,99221.03
2022-09-28T23:58:42.753Z,99234.22
